Time;durP1;ratioP1;P1;durP2;ratioP2;P2;SDS_P1;SDS_P2;PMS_P1;PMS_P2;Temp;Humidity;BMP_temperature;BMP_pressure;BME280_temperature;BME280_humidity;BME280_pressure;Samples;Min_cycle;Max_cycle;Signal;HPM_P1;HPM_P2
2021/09/01 00:01:41;;;;;;;1.60;1.00;;;15.40;98.20;;;;;;4983279;28;20495;-77
2021/09/01 00:04:07;;;;;;;1.57;1.00;;;15.40;98.20;;;;;;4997345;28;20507;-78
2021/09/01 00:06:34;;;;;;;1.50;1.00;;;15.40;98.20;;;;;;4987536;28;20481;-78
2021/09/01 00:09:05;;;;;;;1.57;1.00;;;15.40;98.20;;;;;;4992624;28;21076;-78
2021/09/01 00:11:34;;;;;;;1.53;1.00;;;15.40;98.20;;;;;;4981634;28;20477;-77
2021/09/01 00:14:01;;;;;;;1.60;1.00;;;15.50;98.20;;;;;;4993583;28;20988;-78
2021/09/01 00:16:33;;;;;;;1.57;1.00;;;15.50;98.20;;;;;;4987418;28;20943;-79
2021/09/01 00:19:07;;;;;;;1.60;1.00;;;15.50;98.20;;;;;;4983248;28;20485;-78
2021/09/01 00:21:40;;;;;;;1.60;1.10;;;15.60;98.20;;;;;;4974194;28;21012;-78
2021/09/01 00:24:07;;;;;;;1.60;1.00;;;15.60;98.20;;;;;;4979259;28;20490;-79
2021/09/01 00:26:35;;;;;;;1.60;1.10;;;15.70;98.20;;;;;;4967452;28;20568;-78
2021/09/01 00:29:02;;;;;;;1.53;1.00;;;15.70;98.20;;;;;;4991629;28;20457;-79
2021/09/01 00:31:33;;;;;;;1.53;1.00;;;15.70;98.20;;;;;;4984319;28;20473;-78
2021/09/01 00:34:03;;;;;;;1.57;1.00;;;15.70;98.20;;;;;;4991559;28;20516;-79
2021/09/01 00:36:32;;;;;;;1.53;1.00;;;15.70;98.20;;;;;;4987739;28;20485;-78
2021/09/01 00:39:03;;;;;;;1.50;1.00;;;15.70;98.20;;;;;;4995090;28;20548;-77
2021/09/01 00:41:31;;;;;;;1.57;0.93;;;15.80;98.20;;;;;;4985373;28;20481;-78
2021/09/01 00:44:00;;;;;;;1.53;1.00;;;15.80;98.20;;;;;;4993989;28;20521;-79
2021/09/01 00:46:36;;;;;;;1.60;1.00;;;15.70;98.20;;;;;;4987995;28;20523;-79
2021/09/01 00:49:05;;;;;;;1.53;1.00;;;15.70;98.20;;;;;;4994802;28;20503;-79
2021/09/01 00:51:34;;;;;;;1.50;1.00;;;15.70;98.20;;;;;;4987018;28;20485;-78
2021/09/01 00:54:13;;;;;;;1.57;1.00;;;15.80;98.20;;;;;;4992958;28;20496;-78
2021/09/01 00:56:43;;;;;;;1.60;1.20;;;15.80;98.20;;;;;;4981810;28;20551;-80
2021/09/01 00:59:12;;;;;;;1.53;1.10;;;15.80;98.20;;;;;;5000172;28;20948;-79
2021/09/01 01:01:39;;;;;;;1.60;1.10;;;15.90;98.20;;;;;;4983426;28;20484;-78
2021/09/01 01:04:41;;;;;;;1.53;1.00;;;15.90;98.20;;;;;;4994344;28;20531;-79
2021/09/01 01:07:12;;;;;;;1.57;1.00;;;15.90;98.20;;;;;;4972774;28;20531;-79
2021/09/01 01:09:47;;;;;;;1.53;1.00;;;15.90;98.20;;;;;;4995834;28;20917;-79
2021/09/01 01:12:19;;;;;;;1.57;1.00;;;15.90;98.20;;;;;;4981712;28;20469;-78
2021/09/01 01:14:48;;;;;;;1.50;1.00;;;15.90;98.20;;;;;;4991886;28;20461;-78
2021/09/01 01:17:17;;;;;;;1.53;1.00;;;16.00;98.20;;;;;;4980753;28;20967;-77
2021/09/01 01:19:46;;;;;;;1.53;1.00;;;15.90;98.20;;;;;;4995786;28;20524;-79
2021/09/01 01:22:14;;;;;;;1.53;1.00;;;15.90;98.20;;;;;;4982007;28;20485;-78
2021/09/01 01:24:56;;;;;;;1.57;0.90;;;15.90;98.20;;;;;;4989997;28;20457;-78
2021/09/01 01:27:29;;;;;;;1.60;1.00;;;15.90;98.20;;;;;;4977886;28;20522;-79
2021/09/01 01:29:57;;;;;;;1.50;1.00;;;16.00;98.20;;;;;;4992147;28;20476;-79
2021/09/01 01:32:26;;;;;;;1.57;1.00;;;16.00;98.20;;;;;;4984047;28;20492;-78
2021/09/01 01:34:53;;;;;;;1.53;1.00;;;16.00;98.20;;;;;;4999750;28;20488;-79
2021/09/01 01:37:21;;;;;;;1.53;0.90;;;16.00;98.20;;;;;;4984647;28;20564;-79
2021/09/01 01:39:48;;;;;;;1.53;0.90;;;16.00;98.20;;;;;;4993410;28;20467;-79
2021/09/01 01:42:14;;;;;;;1.57;1.00;;;15.90;98.20;;;;;;4982727;28;20649;-79
2021/09/01 01:44:43;;;;;;;1.57;1.10;;;15.90;98.20;;;;;;4992033;28;20465;-78
2021/09/01 01:47:13;;;;;;;1.57;1.00;;;15.90;98.20;;;;;;4981760;28;20899;-79
2021/09/01 01:49:40;;;;;;;1.53;1.00;;;15.90;98.20;;;;;;4990918;28;20462;-78
2021/09/01 01:52:10;;;;;;;1.57;1.00;;;15.90;98.20;;;;;;4980420;28;20480;-79
2021/09/01 01:54:36;;;;;;;1.53;1.00;;;16.00;98.20;;;;;;4990806;28;20457;-79
2021/09/01 01:57:04;;;;;;;1.60;1.00;;;15.90;98.20;;;;;;4979369;28;21090;-79
2021/09/01 01:59:31;;;;;;;1.60;1.07;;;16.00;98.20;;;;;;4992145;28;20468;-79
2021/09/01 02:02:00;;;;;;;1.57;1.00;;;16.00;98.20;;;;;;4984573;28;20587;-78
2021/09/01 02:04:27;;;;;;;1.53;1.00;;;16.00;98.20;;;;;;4991245;28;20477;-78
2021/09/01 02:06:56;;;;;;;1.57;1.00;;;16.00;98.20;;;;;;4979888;28;20481;-79
2021/09/01 02:09:22;;;;;;;1.57;1.00;;;16.00;98.20;;;;;;4984942;28;20763;-79
2021/09/01 02:11:50;;;;;;;1.57;1.00;;;16.00;98.20;;;;;;4976341;28;20484;-79
2021/09/01 02:14:27;;;;;;;1.50;0.90;;;16.00;98.20;;;;;;4987930;28;20608;-78
2021/09/01 02:16:57;;;;;;;1.57;1.00;;;15.90;98.20;;;;;;4976156;28;20624;-78
2021/09/01 02:19:30;;;;;;;1.57;1.00;;;15.90;98.20;;;;;;4994567;28;20457;-79
2021/09/01 02:21:57;;;;;;;1.53;0.97;;;16.00;98.20;;;;;;4985843;28;20484;-79
2021/09/01 02:24:24;;;;;;;1.53;1.07;;;15.90;98.20;;;;;;4991376;28;21007;-80
2021/09/01 02:26:50;;;;;;;1.60;1.10;;;15.90;98.20;;;;;;4980717;28;20487;-79
2021/09/01 02:29:20;;;;;;;1.57;1.00;;;15.90;98.20;;;;;;4993683;28;20527;-79
2021/09/01 02:31:50;;;;;;;1.53;0.90;;;15.90;98.20;;;;;;4985296;28;20484;-79
2021/09/01 02:34:31;;;;;;;1.60;1.00;;;16.00;98.20;;;;;;4995575;28;20575;-80
2021/09/01 02:37:03;;;;;;;1.50;1.00;;;16.00;98.20;;;;;;4980919;28;20706;-80
2021/09/01 02:39:34;;;;;;;1.53;1.00;;;16.00;98.20;;;;;;4989110;28;20504;-80
2021/09/01 02:42:04;;;;;;;2.27;1.87;;;16.00;98.20;;;;;;4982697;28;20481;-79
2021/09/01 02:44:34;;;;;;;1.53;1.00;;;16.00;98.20;;;;;;4989008;28;20479;-81
2021/09/01 02:47:01;;;;;;;1.50;0.90;;;16.00;98.20;;;;;;4982246;28;20504;-78
2021/09/01 02:49:32;;;;;;;1.50;1.00;;;16.00;98.20;;;;;;4993349;28;20835;-80
2021/09/01 02:51:59;;;;;;;1.50;1.00;;;16.10;98.20;;;;;;4981992;28;20487;-80
2021/09/01 02:54:26;;;;;;;1.60;1.00;;;16.10;98.20;;;;;;4990883;28;20496;-80
2021/09/01 02:56:53;;;;;;;1.57;1.00;;;16.10;98.20;;;;;;4981690;28;20513;-80
2021/09/01 02:59:20;;;;;;;1.57;0.97;;;16.10;98.20;;;;;;4991333;28;20472;-80
2021/09/01 03:01:48;;;;;;;1.57;1.00;;;16.10;98.20;;;;;;4981787;28;20704;-80
2021/09/01 03:04:14;;;;;;;1.53;1.00;;;16.10;98.20;;;;;;4991005;28;20488;-80
2021/09/01 03:06:43;;;;;;;1.57;1.00;;;16.10;98.20;;;;;;4978320;28;20476;-79
2021/09/01 03:09:10;;;;;;;1.53;1.00;;;16.10;98.20;;;;;;4991377;28;20539;-79
2021/09/01 03:11:45;;;;;;;1.50;0.97;;;16.10;98.20;;;;;;4978722;28;20872;-79
2021/09/01 03:14:15;;;;;;;1.60;1.00;;;16.10;98.20;;;;;;4990055;28;20508;-80
2021/09/01 03:16:45;;;;;;;1.57;1.00;;;16.00;98.20;;;;;;4992207;28;21032;-79
2021/09/01 03:19:11;;;;;;;1.53;1.00;;;16.10;98.20;;;;;;4990086;28;20457;-80
2021/09/01 03:21:41;;;;;;;1.57;1.00;;;16.10;98.20;;;;;;4979314;28;20993;-79
2021/09/01 03:24:09;;;;;;;1.50;1.00;;;16.10;98.20;;;;;;4992317;28;20493;-79
2021/09/01 03:26:36;;;;;;;1.53;0.97;;;16.10;98.20;;;;;;4981913;28;20518;-79
2021/09/01 03:29:03;;;;;;;1.57;1.00;;;16.10;98.20;;;;;;4990449;28;20457;-78
2021/09/01 03:31:38;;;;;;;1.53;0.90;;;16.10;98.20;;;;;;4978905;28;21067;-79
2021/09/01 03:34:10;;;;;;;1.60;1.10;;;16.10;98.20;;;;;;4989127;28;20473;-79
2021/09/01 03:36:37;;;;;;;1.53;1.00;;;16.10;98.20;;;;;;4982596;28;20936;-79
2021/09/01 03:39:04;;;;;;;1.53;0.90;;;16.00;98.20;;;;;;4986934;28;21004;-78
2021/09/01 03:41:32;;;;;;;1.57;1.00;;;16.00;98.20;;;;;;4979061;28;20481;-80
2021/09/01 03:44:01;;;;;;;1.57;1.00;;;16.00;98.20;;;;;;4991852;28;20492;-79
2021/09/01 03:46:29;;;;;;;1.50;1.00;;;16.00;98.20;;;;;;4978839;28;21136;-78
2021/09/01 03:49:00;;;;;;;1.57;1.03;;;16.00;98.20;;;;;;4991898;28;20497;-79
2021/09/01 03:51:35;;;;;;;1.60;1.10;;;15.90;98.20;;;;;;4983482;28;20472;-80
2021/09/01 03:54:05;;;;;;;1.57;1.00;;;15.90;98.20;;;;;;4991957;28;20496;-79
2021/09/01 03:56:34;;;;;;;1.53;1.00;;;15.90;98.20;;;;;;4978205;28;21038;-79
2021/09/01 04:01:42;;;;;;;1.53;1.00;;;15.90;98.20;;;;;;4984072;28;20482;-79
2021/09/01 04:04:09;;;;;;;1.53;1.00;;;15.90;98.20;;;;;;4992107;28;20562;-78
2021/09/01 04:06:36;;;;;;;1.57;1.00;;;15.90;98.20;;;;;;4982331;28;21058;-80
2021/09/01 04:09:07;;;;;;;1.57;1.10;;;15.90;98.20;;;;;;4993265;28;20613;-79
2021/09/01 04:11:38;;;;;;;1.60;1.10;;;15.90;98.20;;;;;;4983965;28;20483;-79
2021/09/01 04:14:05;;;;;;;1.53;1.00;;;15.90;98.20;;;;;;4995064;28;20488;-80
2021/09/01 04:16:32;;;;;;;1.60;1.00;;;15.90;98.20;;;;;;4982954;28;20550;-79
2021/09/01 04:19:02;;;;;;;1.57;1.00;;;15.90;98.20;;;;;;4993087;28;20565;-80
2021/09/01 04:21:29;;;;;;;1.60;1.10;;;15.90;98.20;;;;;;4982718;28;20862;-79
2021/09/01 04:23:58;;;;;;;1.60;1.03;;;15.90;98.20;;;;;;4992021;28;20560;-80
2021/09/01 04:26:24;;;;;;;1.90;1.53;;;15.90;98.20;;;;;;4978042;28;20531;-79
2021/09/01 04:29:07;;;;;;;1.53;1.00;;;15.80;98.20;;;;;;4993414;28;21037;-79
2021/09/01 04:31:35;;;;;;;1.60;1.00;;;15.80;98.20;;;;;;4983584;28;21034;-78
2021/09/01 04:34:02;;;;;;;1.57;1.00;;;15.80;98.20;;;;;;4995378;28;20535;-79
2021/09/01 04:36:29;;;;;;;1.50;1.00;;;15.80;98.20;;;;;;4990161;28;20488;-79
2021/09/01 04:38:57;;;;;;;1.57;1.00;;;15.80;98.20;;;;;;4988020;28;20464;-80
2021/09/01 04:47:01;;;;;;;1.60;1.00;;;15.70;98.20;;;;;;4976544;28;20980;-78
2021/09/01 04:49:28;;;;;;;1.50;1.00;;;15.70;98.20;;;;;;4994032;28;20475;-77
2021/09/01 04:51:56;;;;;;;1.53;1.00;;;15.70;98.20;;;;;;4983155;28;20615;-80
2021/09/01 04:57:43;;;;;;;1.53;1.00;;;15.80;98.20;;;;;;4954016;28;21067;-80
2021/09/01 05:00:12;;;;;;;1.60;1.00;;;15.80;98.20;;;;;;4993374;28;20472;-79
2021/09/01 05:02:39;;;;;;;1.50;0.90;;;15.80;98.20;;;;;;4971203;28;20504;-80
2021/09/01 05:05:07;;;;;;;1.53;1.00;;;15.80;98.20;;;;;;4973102;28;20470;-80
2021/09/01 05:07:34;;;;;;;1.50;1.00;;;15.80;98.20;;;;;;4969295;28;20576;-78
2021/09/01 05:10:04;;;;;;;1.57;1.00;;;15.80;98.20;;;;;;4988352;28;20689;-77
2021/09/01 05:12:31;;;;;;;1.53;1.00;;;15.90;98.20;;;;;;4981689;28;20555;-78
2021/09/01 05:14:58;;;;;;;1.57;1.00;;;15.90;98.20;;;;;;4992022;28;20492;-78
2021/09/01 05:17:26;;;;;;;1.57;1.00;;;15.80;98.20;;;;;;4980020;28;20929;-77
2021/09/01 05:19:53;;;;;;;1.57;1.00;;;15.90;98.20;;;;;;4987868;28;20481;-79
2021/09/01 05:22:25;;;;;;;1.50;1.00;;;15.90;98.20;;;;;;4981041;28;20473;-79
2021/09/01 05:25:01;;;;;;;1.60;1.00;;;15.90;98.20;;;;;;4988608;28;20573;-77
2021/09/01 05:27:35;;;;;;;1.53;1.00;;;15.90;98.20;;;;;;4974614;28;20477;-76
2021/09/01 05:30:05;;;;;;;1.57;1.00;;;15.90;98.20;;;;;;4992181;28;20472;-78
2021/09/01 05:32:37;;;;;;;1.53;1.00;;;15.90;98.20;;;;;;4986217;28;20496;-78
2021/09/01 05:35:05;;;;;;;1.50;1.00;;;15.90;98.20;;;;;;4988684;28;20462;-78
2021/09/01 05:37:33;;;;;;;1.57;1.00;;;16.00;98.20;;;;;;4978497;28;20863;-79
2021/09/01 05:40:02;;;;;;;1.50;1.00;;;16.00;98.20;;;;;;4991980;28;20488;-77
2021/09/01 05:42:32;;;;;;;1.53;1.00;;;16.00;98.20;;;;;;4980506;28;20485;-79
2021/09/01 05:44:59;;;;;;;1.57;1.00;;;16.00;98.20;;;;;;4991431;28;20485;-79
2021/09/01 05:47:27;;;;;;;1.60;1.10;;;16.10;98.20;;;;;;4979435;28;20509;-80
2021/09/01 05:49:58;;;;;;;1.57;1.00;;;16.10;98.20;;;;;;4991404;28;20457;-80
2021/09/01 05:52:27;;;;;;;1.53;1.00;;;16.10;98.20;;;;;;4988213;28;20897;-79
2021/09/01 05:54:58;;;;;;;1.57;1.00;;;16.10;98.20;;;;;;4987402;28;20480;-80
2021/09/01 05:57:34;;;;;;;1.57;1.00;;;16.10;98.20;;;;;;4972922;28;20944;-79
2021/09/01 06:00:06;;;;;;;1.53;0.90;;;16.10;98.20;;;;;;4988451;28;20551;-79
2021/09/01 06:02:44;;;;;;;1.50;1.00;;;16.20;98.20;;;;;;4978040;28;20496;-78
2021/09/01 06:05:13;;;;;;;1.53;1.00;;;16.20;98.20;;;;;;4985611;28;20872;-78
2021/09/01 06:07:50;;;;;;;1.57;1.00;;;16.20;98.20;;;;;;4980964;28;20488;-78
2021/09/01 06:10:22;;;;;;;1.53;1.00;;;16.30;98.20;;;;;;4987225;28;20467;-78
2021/09/01 06:12:52;;;;;;;1.53;1.00;;;16.30;98.20;;;;;;4956736;28;20680;-77
2021/09/01 06:15:19;;;;;;;1.60;1.00;;;16.40;98.20;;;;;;4987610;28;20492;-78
2021/09/01 06:17:46;;;;;;;1.57;1.03;;;16.40;98.20;;;;;;4976740;28;20865;-78
2021/09/01 06:20:15;;;;;;;1.60;1.00;;;16.40;98.20;;;;;;4989122;28;20456;-78
2021/09/01 06:22:42;;;;;;;1.57;1.00;;;16.40;98.20;;;;;;4977559;28;20500;-79
2021/09/01 06:25:09;;;;;;;1.60;1.00;;;16.50;98.20;;;;;;4988080;28;20489;-79
2021/09/01 06:27:36;;;;;;;1.57;1.00;;;16.50;98.20;;;;;;4976140;28;20496;-79
2021/09/01 06:30:03;;;;;;;1.60;1.00;;;16.60;98.20;;;;;;4987772;28;20553;-79
2021/09/01 06:32:59;;;;;;;1.60;1.00;;;16.60;98.20;;;;;;4977123;28;20472;-79
2021/09/01 06:35:32;;;;;;;2.47;2.17;;;16.60;98.20;;;;;;4991504;28;20476;-78
2021/09/01 06:38:05;;;;;;;1.57;1.00;;;16.60;98.20;;;;;;4985191;28;20494;-78
2021/09/01 06:40:36;;;;;;;1.57;1.00;;;16.60;98.20;;;;;;4995472;28;20501;-78
2021/09/01 06:43:12;;;;;;;1.57;0.93;;;16.60;98.20;;;;;;4986391;28;20489;-78
2021/09/01 06:45:44;;;;;;;1.60;1.00;;;16.60;98.20;;;;;;4997402;28;20460;-77
2021/09/01 06:48:16;;;;;;;1.57;1.00;;;16.60;98.20;;;;;;4979904;28;20476;-78
2021/09/01 06:50:49;;;;;;;1.50;1.00;;;16.60;98.20;;;;;;4999814;28;20457;-80
2021/09/01 06:53:19;;;;;;;1.53;1.00;;;16.60;98.20;;;;;;4970555;28;20481;-78
2021/09/01 06:55:57;;;;;;;1.60;1.00;;;16.70;98.20;;;;;;4996496;28;20881;-78
2021/09/01 06:58:44;;;;;;;1.57;1.00;;;16.70;98.20;;;;;;4992541;28;20976;-78
2021/09/01 07:01:11;;;;;;;1.53;0.90;;;16.70;98.20;;;;;;4975768;28;20683;-78
2021/09/01 07:03:40;;;;;;;1.53;1.00;;;16.70;98.20;;;;;;4996273;28;20567;-78
2021/09/01 07:06:13;;;;;;;1.50;1.00;;;16.70;98.20;;;;;;4987846;28;20532;-78
2021/09/01 07:08:43;;;;;;;1.60;1.00;;;16.70;98.20;;;;;;4997666;28;20449;-78
2021/09/01 07:11:13;;;;;;;1.50;1.00;;;16.80;98.20;;;;;;4982771;28;20833;-79
2021/09/01 07:13:41;;;;;;;1.57;0.90;;;16.80;98.20;;;;;;4996244;28;20508;-78
2021/09/01 07:16:10;;;;;;;1.60;1.00;;;16.90;98.20;;;;;;4985257;28;20473;-79
2021/09/01 07:18:41;;;;;;;1.50;1.00;;;16.80;98.20;;;;;;4998806;28;20468;-78
2021/09/01 07:21:23;;;;;;;1.57;1.00;;;16.80;98.20;;;;;;4988700;28;20476;-79
2021/09/01 07:23:55;;;;;;;1.60;1.00;;;16.80;98.20;;;;;;5003417;28;20512;-77
2021/09/01 07:26:23;;;;;;;1.57;1.00;;;16.90;98.20;;;;;;4991226;28;20523;-78
2021/09/01 07:28:54;;;;;;;1.57;0.97;;;16.90;98.20;;;;;;5000853;28;20464;-78
2021/09/01 07:31:27;;;;;;;1.60;1.00;;;17.00;98.20;;;;;;4990848;28;20528;-78
2021/09/01 07:34:07;;;;;;;1.57;0.90;;;17.00;98.20;;;;;;4999822;28;20548;-78
2021/09/01 07:37:02;;;;;;;1.50;0.90;;;17.10;98.20;;;;;;4989229;28;20507;-78
2021/09/01 07:39:32;;;;;;;1.53;1.00;;;17.00;98.20;;;;;;4993306;28;20565;-79
2021/09/01 07:42:02;;;;;;;1.50;0.90;;;17.10;98.20;;;;;;4990811;28;20988;-79
2021/09/01 07:44:39;;;;;;;1.57;1.00;;;17.10;98.20;;;;;;5001005;28;20480;-80
2021/09/01 07:47:38;;;;;;;1.53;1.00;;;17.10;98.20;;;;;;4996347;28;20495;-79
2021/09/01 07:50:27;;;;;;;1.60;1.00;;;17.10;98.20;;;;;;4948805;28;20957;-78
2021/09/01 07:53:02;;;;;;;1.50;1.00;;;17.20;98.20;;;;;;4986238;28;20526;-79
2021/09/01 07:55:38;;;;;;;1.60;0.97;;;17.20;98.20;;;;;;4991004;28;21214;-79
2021/09/01 07:58:08;;;;;;;1.50;0.90;;;17.20;98.20;;;;;;4990116;28;20559;-78
2021/09/01 08:00:40;;;;;;;1.57;0.97;;;17.20;98.20;;;;;;5001193;28;20461;-79
2021/09/01 08:03:25;;;;;;;1.53;0.90;;;17.30;98.20;;;;;;4979560;28;20481;-79
2021/09/01 08:05:52;;;;;;;1.50;1.00;;;17.40;98.20;;;;;;4978519;28;20465;-79
2021/09/01 08:08:22;;;;;;;1.53;1.00;;;17.40;98.20;;;;;;4976427;28;20466;-78
2021/09/01 08:10:50;;;;;;;1.53;0.90;;;17.60;98.20;;;;;;4977205;28;20493;-81
2021/09/01 08:13:17;;;;;;;1.60;1.00;;;17.60;98.20;;;;;;4984748;28;20508;-80
2021/09/01 08:15:44;;;;;;;1.57;1.00;;;17.60;98.20;;;;;;4984724;28;20457;-81
2021/09/01 08:18:12;;;;;;;1.60;1.07;;;17.70;98.20;;;;;;4984071;28;20504;-79
2021/09/01 08:20:39;;;;;;;1.60;1.00;;;17.70;98.20;;;;;;4985653;28;20470;-79
2021/09/01 08:23:06;;;;;;;1.50;0.90;;;17.70;98.20;;;;;;4988002;28;20488;-79
2021/09/01 08:25:34;;;;;;;1.60;1.07;;;17.70;98.20;;;;;;4990172;28;20485;-79
2021/09/01 08:28:02;;;;;;;1.60;1.00;;;17.70;98.20;;;;;;4968799;28;20922;-80
2021/09/01 08:30:30;;;;;;;1.57;1.00;;;17.60;98.20;;;;;;4978372;28;20857;-79
2021/09/01 08:32:57;;;;;;;1.53;0.97;;;17.60;98.20;;;;;;4968318;28;20486;-79
2021/09/01 08:35:27;;;;;;;1.60;1.00;;;17.60;98.20;;;;;;4978619;28;20788;-78
2021/09/01 08:37:54;;;;;;;1.53;1.00;;;17.60;98.20;;;;;;4970386;28;20549;-79
2021/09/01 08:40:21;;;;;;;1.50;0.90;;;17.50;98.20;;;;;;4984438;28;20458;-79
2021/09/01 08:42:52;;;;;;;1.50;0.97;;;17.40;98.20;;;;;;4989367;28;20947;-79
2021/09/01 08:45:19;;;;;;;1.53;0.90;;;17.40;98.20;;;;;;5002668;28;20501;-80
2021/09/01 08:47:46;;;;;;;1.53;0.97;;;17.50;98.20;;;;;;4995497;28;20552;-79
2021/09/01 08:50:13;;;;;;;1.50;1.00;;;17.50;98.20;;;;;;5002355;28;21200;-79
2021/09/01 08:52:41;;;;;;;1.57;1.00;;;17.60;98.20;;;;;;4988596;28;20488;-78
2021/09/01 08:55:10;;;;;;;1.60;0.97;;;17.60;98.20;;;;;;4996034;28;20452;-78
2021/09/01 08:57:38;;;;;;;1.50;0.90;;;17.60;98.20;;;;;;4987282;28;20532;-78
2021/09/01 09:00:10;;;;;;;1.60;1.00;;;17.60;98.20;;;;;;4995486;28;20552;-79
2021/09/01 09:02:37;;;;;;;1.50;1.00;;;17.70;98.20;;;;;;4983062;28;20566;-77
2021/09/01 09:05:07;;;;;;;1.53;1.00;;;17.70;98.20;;;;;;4992997;28;20495;-80
2021/09/01 09:07:43;;;;;;;1.53;1.00;;;17.70;98.20;;;;;;4985514;28;20955;-78
2021/09/01 09:10:29;;;;;;;1.50;0.90;;;17.70;98.20;;;;;;4994682;28;20453;-77
2021/09/01 09:12:57;;;;;;;1.50;0.97;;;17.80;98.20;;;;;;4981488;28;20498;-77
2021/09/01 09:15:26;;;;;;;1.50;1.00;;;17.70;98.20;;;;;;4999966;28;20462;-77
2021/09/01 09:17:54;;;;;;;1.60;1.20;;;17.60;98.20;;;;;;4985960;28;20487;-76
2021/09/01 09:20:29;;;;;;;1.57;1.00;;;17.50;98.20;;;;;;5002201;28;20460;-76
2021/09/01 09:22:56;;;;;;;1.93;1.73;;;17.50;98.20;;;;;;4981413;28;20522;-77
2021/09/01 09:25:27;;;;;;;1.50;0.90;;;17.60;98.20;;;;;;4994108;28;20516;-77
2021/09/01 09:27:58;;;;;;;1.50;0.90;;;17.60;98.20;;;;;;4987253;28;20485;-79
2021/09/01 09:30:44;;;;;;;1.50;1.00;;;17.60;98.20;;;;;;4997106;28;20467;-79
2021/09/01 09:33:14;;;;;;;1.53;1.00;;;17.60;98.20;;;;;;4979797;28;20917;-78
2021/09/01 09:35:53;;;;;;;1.53;1.00;;;17.60;98.20;;;;;;4979769;28;20897;-79
2021/09/01 09:38:39;;;;;;;1.60;1.10;;;17.60;98.20;;;;;;4949928;28;20537;-79
2021/09/01 09:41:08;;;;;;;1.57;1.00;;;17.70;98.20;;;;;;4973475;28;20571;-79
2021/09/01 09:43:36;;;;;;;1.50;1.00;;;17.70;98.20;;;;;;5002224;28;20848;-79
2021/09/01 09:46:10;;;;;;;1.53;1.00;;;17.70;98.20;;;;;;4985436;28;20484;-78
2021/09/01 09:48:39;;;;;;;1.53;1.00;;;17.70;98.20;;;;;;4995379;28;20461;-78
2021/09/01 09:51:09;;;;;;;1.50;0.90;;;17.70;98.20;;;;;;4989442;28;20466;-77
2021/09/01 09:53:39;;;;;;;1.50;0.90;;;17.60;98.20;;;;;;5004920;28;20484;-78
2021/09/01 09:56:15;;;;;;;1.50;1.00;;;17.60;98.20;;;;;;4989479;28;21240;-77
2021/09/01 09:58:44;;;;;;;1.50;0.90;;;17.60;98.20;;;;;;4995253;28;20470;-78
2021/09/01 10:01:14;;;;;;;1.50;0.90;;;17.60;98.20;;;;;;4988515;28;20870;-78
2021/09/01 10:03:42;;;;;;;1.60;1.00;;;17.60;98.20;;;;;;4993992;28;20489;-77
2021/09/01 10:06:13;;;;;;;1.57;0.97;;;17.60;98.20;;;;;;4986128;28;20492;-78
2021/09/01 10:08:40;;;;;;;1.50;0.90;;;17.70;98.20;;;;;;4997084;28;20475;-77
2021/09/01 10:11:10;;;;;;;1.57;0.90;;;17.70;98.20;;;;;;4986893;28;20474;-77
2021/09/01 10:13:40;;;;;;;1.53;0.90;;;17.70;98.20;;;;;;4994266;28;21055;-78
2021/09/01 10:16:15;;;;;;;1.53;1.00;;;17.80;98.20;;;;;;4987663;28;20545;-77
2021/09/01 10:18:47;;;;;;;1.50;0.97;;;17.70;98.20;;;;;;4994307;28;20494;-78
2021/09/01 10:21:15;;;;;;;1.50;1.00;;;17.70;98.20;;;;;;4984790;28;20538;-77
2021/09/01 10:23:44;;;;;;;1.53;0.90;;;17.70;98.20;;;;;;4994884;28;21040;-79
2021/09/01 10:26:27;;;;;;;1.50;0.90;;;17.80;98.20;;;;;;4984988;28;20488;-77
2021/09/01 10:28:55;;;;;;;1.53;1.00;;;17.80;98.20;;;;;;4987750;28;20994;-78
2021/09/01 10:31:26;;;;;;;1.53;0.90;;;17.90;98.20;;;;;;4985149;28;20480;-78
2021/09/01 10:33:55;;;;;;;1.60;1.00;;;17.90;98.20;;;;;;4993786;28;20485;-78
2021/09/01 10:36:48;;;;;;;1.53;1.00;;;18.00;98.20;;;;;;4987915;28;20485;-78
2021/09/01 10:39:17;;;;;;;1.50;1.00;;;18.10;98.20;;;;;;4987829;28;20584;-78
2021/09/01 10:41:45;;;;;;;1.53;0.90;;;18.10;98.20;;;;;;4983030;28;20525;-78
2021/09/01 10:44:21;;;;;;;1.60;1.00;;;18.10;98.20;;;;;;4977614;28;20513;-77
2021/09/01 10:47:02;;;;;;;1.57;0.90;;;18.20;98.20;;;;;;4965335;28;20482;-78
2021/09/01 10:50:14;;;;;;;1.53;0.90;;;18.20;98.20;;;;;;4987518;28;20494;-80
2021/09/01 10:53:06;;;;;;;1.53;1.00;;;18.20;98.20;;;;;;4936873;28;20495;-78
2021/09/01 10:55:48;;;;;;;1.50;0.90;;;18.20;98.20;;;;;;4971176;28;20487;-78
2021/09/01 10:58:43;;;;;;;1.53;1.00;;;18.20;98.20;;;;;;4979056;28;20472;-76
2021/09/01 11:01:13;;;;;;;1.50;0.90;;;18.20;98.20;;;;;;4993438;28;20479;-77
2021/09/01 11:03:48;;;;;;;1.53;1.00;;;18.10;98.20;;;;;;5012613;28;20483;-78
2021/09/01 11:06:20;;;;;;;1.50;1.00;;;18.10;98.20;;;;;;5000380;28;20499;-77
2021/09/01 11:09:15;;;;;;;1.50;0.90;;;18.10;98.20;;;;;;4999445;28;20918;-78
2021/09/01 11:11:53;;;;;;;1.53;1.00;;;18.10;98.20;;;;;;4990318;28;20481;-77
2021/09/01 11:14:37;;;;;;;1.60;0.90;;;18.10;98.20;;;;;;4996550;28;20519;-78
2021/09/01 11:17:10;;;;;;;1.50;0.90;;;18.10;98.20;;;;;;4997989;28;20484;-78
2021/09/01 11:19:40;;;;;;;1.60;1.00;;;18.10;98.20;;;;;;5004236;28;20483;-78
2021/09/01 11:22:08;;;;;;;1.53;1.00;;;18.10;98.20;;;;;;4994905;28;20473;-78
2021/09/01 11:24:50;;;;;;;1.50;0.97;;;18.10;98.20;;;;;;5005594;28;20897;-78
2021/09/01 11:27:19;;;;;;;1.50;0.90;;;18.10;98.20;;;;;;4995766;28;20490;-79
2021/09/01 11:29:47;;;;;;;1.50;0.90;;;18.20;98.20;;;;;;5006690;28;20472;-77
2021/09/01 11:32:16;;;;;;;1.57;1.00;;;18.20;98.20;;;;;;5007934;28;20491;-78
2021/09/01 11:34:44;;;;;;;1.53;0.90;;;18.20;98.20;;;;;;5007538;28;20477;-78
2021/09/01 11:37:12;;;;;;;1.60;1.00;;;18.20;98.20;;;;;;4993833;28;20741;-78
2021/09/01 11:39:44;;;;;;;1.70;1.43;;;18.20;98.20;;;;;;5003995;28;20480;-78
2021/09/01 11:42:12;;;;;;;1.53;1.00;;;18.30;98.20;;;;;;4976534;28;21026;-77
2021/09/01 11:44:40;;;;;;;1.50;0.97;;;18.40;98.20;;;;;;4984823;28;20916;-78
2021/09/01 11:47:10;;;;;;;1.53;1.00;;;18.50;98.20;;;;;;4979711;28;20495;-79
2021/09/01 11:49:38;;;;;;;1.57;0.90;;;18.50;98.20;;;;;;5000800;28;20805;-79
2021/09/01 11:52:07;;;;;;;1.70;1.53;;;18.60;98.20;;;;;;4991017;28;20514;-77
2021/09/01 11:54:40;;;;;;;1.50;0.90;;;18.60;98.20;;;;;;5006871;28;20479;-78
2021/09/01 11:57:07;;;;;;;1.53;0.90;;;18.70;98.20;;;;;;4996412;28;20512;-78
2021/09/01 11:59:36;;;;;;;1.57;1.00;;;18.70;98.20;;;;;;5005370;28;20483;-77
2021/09/01 12:02:06;;;;;;;1.50;0.90;;;18.80;98.20;;;;;;5002326;28;20506;-77
2021/09/01 12:04:42;;;;;;;1.60;0.90;;;18.80;98.20;;;;;;5004500;28;20488;-78
2021/09/01 12:07:12;;;;;;;1.50;0.97;;;18.70;98.20;;;;;;4991972;28;20469;-79
2021/09/01 12:09:40;;;;;;;1.53;1.00;;;18.80;98.20;;;;;;5002812;28;20472;-78
2021/09/01 12:12:10;;;;;;;1.50;1.00;;;18.80;98.20;;;;;;4993267;28;20480;-77
2021/09/01 12:14:49;;;;;;;1.60;1.00;;;18.90;98.20;;;;;;5004567;28;20465;-78
2021/09/01 12:17:20;;;;;;;1.50;0.90;;;18.80;98.20;;;;;;4994943;28;20481;-78
2021/09/01 12:19:49;;;;;;;1.57;1.00;;;18.80;98.20;;;;;;5005713;28;20465;-78
2021/09/01 12:22:49;;;;;;;1.60;1.00;;;18.80;98.20;;;;;;4995355;28;21344;-78
2021/09/01 12:25:25;;;;;;;1.53;0.90;;;18.80;98.20;;;;;;5002834;28;20477;-79
2021/09/01 12:28:10;;;;;;;1.50;0.90;;;18.90;98.20;;;;;;4998354;28;20491;-78
2021/09/01 12:30:59;;;;;;;1.53;0.90;;;18.90;98.20;;;;;;5005005;28;20465;-78
2021/09/01 12:33:31;;;;;;;1.60;1.00;;;19.00;98.20;;;;;;4975840;28;20561;-77
2021/09/01 12:36:00;;;;;;;1.50;1.00;;;19.00;98.20;;;;;;4993516;28;20465;-77
2021/09/01 12:38:32;;;;;;;1.50;0.90;;;19.10;98.20;;;;;;5011530;28;20472;-79
2021/09/01 12:41:00;;;;;;;1.50;0.90;;;19.10;98.20;;;;;;4993805;28;20457;-79
2021/09/01 12:43:48;;;;;;;1.50;1.00;;;19.20;98.10;;;;;;5009805;28;20468;-78
2021/09/01 12:46:40;;;;;;;1.53;0.90;;;19.30;97.60;;;;;;4991972;28;20471;-79
2021/09/01 12:49:52;;;;;;;1.57;0.90;;;19.30;97.30;;;;;;5000687;28;20466;-78
2021/09/01 12:52:32;;;;;;;1.50;0.90;;;19.30;97.70;;;;;;4993295;28;20473;-78
2021/09/01 12:55:09;;;;;;;1.50;0.90;;;19.40;97.60;;;;;;5010702;28;20452;-78
2021/09/01 12:57:53;;;;;;;1.70;1.20;;;19.30;97.90;;;;;;5004520;28;20528;-78
2021/09/01 13:00:36;;;;;;;1.53;0.90;;;19.30;97.60;;;;;;5011640;28;20484;-78
2021/09/01 13:03:29;;;;;;;1.50;0.90;;;19.20;97.90;;;;;;5005144;28;21344;-77
2021/09/01 13:06:05;;;;;;;1.50;1.00;;;19.20;97.60;;;;;;4993220;28;20473;-77
2021/09/01 13:11:32;;;;;;;1.50;0.90;;;19.30;97.40;;;;;;4995853;28;20480;-77
2021/09/01 13:14:38;;;;;;;1.50;0.90;;;19.10;97.90;;;;;;5006587;28;20473;-77
2021/09/01 13:17:11;;;;;;;1.53;0.90;;;19.10;97.50;;;;;;4998879;28;20784;-77
2021/09/01 13:19:44;;;;;;;1.53;0.90;;;19.10;98.20;;;;;;4999920;28;20528;-77
2021/09/01 13:22:27;;;;;;;1.50;0.97;;;19.10;98.20;;;;;;5000267;28;20489;-78
2021/09/01 13:25:07;;;;;;;1.50;1.00;;;19.00;98.20;;;;;;5004343;28;20932;-78
2021/09/01 13:27:44;;;;;;;1.53;1.00;;;19.00;98.00;;;;;;5001325;28;20506;-77